createdAt,value
2019-04-28T00:00:46.070Z,5.30
2019-04-28T00:03:16.816Z,5.23
2019-04-28T00:05:47.636Z,5.40
2019-04-28T00:08:18.476Z,5.40
2019-04-28T00:10:49.220Z,5.37
2019-04-28T00:13:20.920Z,5.40
2019-04-28T00:15:52.312Z,4.70
2019-04-28T00:18:23.876Z,5.30
2019-04-28T00:21:00.927Z,5.20
2019-04-28T00:23:33.338Z,5.57
2019-04-28T00:26:22.325Z,5.50
2019-04-28T00:28:53.235Z,5.77
2019-04-28T00:31:23.958Z,5.30
2019-04-28T00:33:54.412Z,5.50
2019-04-28T00:36:25.136Z,5.70
2019-04-28T00:38:55.586Z,6.27
2019-04-28T00:41:26.400Z,6.27
2019-04-28T00:43:56.873Z,6.00
2019-04-28T00:46:35.136Z,6.37
2019-04-28T00:49:05.860Z,6.40
2019-04-28T00:51:36.586Z,6.80
2019-04-28T00:54:07.317Z,7.33
2019-04-28T00:56:38.080Z,6.60
2019-04-28T00:59:08.994Z,7.03
2019-04-28T01:01:51.267Z,6.80
2019-04-28T01:04:22.444Z,7.40
2019-04-28T01:06:53.294Z,7.53
2019-04-28T01:09:24.234Z,7.70
2019-04-28T01:11:55.084Z,7.40
2019-04-28T01:14:25.919Z,7.73
2019-04-28T01:17:14.765Z,7.30
2019-04-28T01:19:47.174Z,7.87
2019-04-28T01:22:20.143Z,8.30
2019-04-28T01:24:51.167Z,8.17
2019-04-28T01:27:30.369Z,7.87
2019-04-28T01:30:08.615Z,7.83
2019-04-28T01:32:40.038Z,8.40
2019-04-28T01:35:11.716Z,8.33
2019-04-28T01:37:42.542Z,8.63
2019-04-28T01:40:13.297Z,8.07
2019-04-28T01:42:44.126Z,7.80
2019-04-28T01:45:15.279Z,7.77
2019-04-28T01:47:46.106Z,7.60
2019-04-28T01:50:16.945Z,8.37
2019-04-28T01:52:47.681Z,7.30
2019-04-28T01:55:19.998Z,7.10
2019-04-28T01:57:50.584Z,7.87
2019-04-28T02:00:25.448Z,8.17
2019-04-28T02:02:54.400Z,8.03
2019-04-28T02:05:25.235Z,7.83
2019-04-28T02:07:56.075Z,8.30
2019-04-28T02:10:26.806Z,8.20
2019-04-28T02:12:57.659Z,7.90
2019-04-28T02:15:30.215Z,7.67
2019-04-28T02:18:01.199Z,8.30
2019-04-28T02:20:32.024Z,7.87
2019-04-28T02:23:07.133Z,7.97
2019-04-28T02:25:39.790Z,7.80
2019-04-28T02:28:11.853Z,8.53
2019-04-28T02:30:49.364Z,7.90
2019-04-28T02:33:15.395Z,8.00
2019-04-28T02:35:45.960Z,7.37
2019-04-28T02:38:16.796Z,7.90
2019-04-28T02:40:50.109Z,7.87
2019-04-28T02:43:20.961Z,7.93
2019-04-28T02:45:53.433Z,7.73
2019-04-28T02:48:26.390Z,7.17
2019-04-28T02:51:07.675Z,7.57
2019-04-28T02:53:40.853Z,7.73
2019-04-28T02:56:11.890Z,7.60
2019-04-28T02:58:42.739Z,7.83
2019-04-28T03:01:22.756Z,7.53
2019-04-28T03:03:45.643Z,7.73
2019-04-28T03:06:16.377Z,9.13
2019-04-28T03:08:47.198Z,8.80
2019-04-28T03:11:20.159Z,7.70
2019-04-28T03:13:51.159Z,8.70
2019-04-28T03:16:23.172Z,8.97
2019-04-28T03:18:54.232Z,9.53
2019-04-28T03:21:24.955Z,9.57
2019-04-28T03:23:55.700Z,9.70
2019-04-28T03:26:41.345Z,9.37
2019-04-28T03:29:26.246Z,9.70
2019-04-28T03:32:28.726Z,9.80
2019-04-28T03:34:43.625Z,9.33
2019-04-28T03:37:14.225Z,10.00
2019-04-28T03:39:44.780Z,10.13
2019-04-28T03:42:15.591Z,10.10
2019-04-28T03:44:46.172Z,10.33
2019-04-28T03:47:21.029Z,9.87
2019-04-28T03:49:51.283Z,10.50
2019-04-28T03:52:22.206Z,10.10
2019-04-28T03:54:52.594Z,10.47
2019-04-28T03:57:23.269Z,10.70
2019-04-28T03:59:54.113Z,10.07
2019-04-28T04:02:25.037Z,10.57
2019-04-28T04:04:55.551Z,10.80
2019-04-28T04:07:26.035Z,10.90
2019-04-28T04:10:01.375Z,10.93
2019-04-28T04:12:36.783Z,10.97
2019-04-28T04:15:15.223Z,10.67
2019-04-28T04:18:05.810Z,10.80
2019-04-28T04:20:36.349Z,11.17
2019-04-28T04:23:07.270Z,10.47
2019-04-28T04:25:38.199Z,11.07
2019-04-28T04:28:10.582Z,10.80
2019-04-28T04:30:41.511Z,10.20
2019-04-28T04:33:12.378Z,10.67
2019-04-28T04:35:43.679Z,9.63
2019-04-28T04:38:14.849Z,10.07
2019-04-28T04:40:45.592Z,9.77
2019-04-28T04:43:16.425Z,9.43
2019-04-28T04:45:47.160Z,9.67
2019-04-28T04:48:17.566Z,9.40
2019-04-28T04:50:47.997Z,10.63
2019-04-28T04:53:20.777Z,10.13
2019-04-28T04:55:52.730Z,10.13
2019-04-28T04:58:23.817Z,9.40
2019-04-28T05:00:56.277Z,9.63
2019-04-28T05:03:29.722Z,10.00
2019-04-28T05:06:00.812Z,9.83
2019-04-28T05:08:31.549Z,10.17
2019-04-28T05:11:01.929Z,9.13
2019-04-28T05:13:32.707Z,9.73
2019-04-28T05:16:03.073Z,10.37
2019-04-28T05:18:33.871Z,9.53
2019-04-28T05:21:04.256Z,10.20
2019-04-28T05:23:40.005Z,10.37
2019-04-28T05:26:11.431Z,9.50
2019-04-28T05:28:50.431Z,10.20
2019-04-28T05:31:22.943Z,9.40
2019-04-28T05:33:47.387Z,8.93
2019-04-28T05:36:20.340Z,9.27
2019-04-28T05:38:50.647Z,8.90
2019-04-28T05:41:21.447Z,8.57
2019-04-28T05:43:52.296Z,9.20
2019-04-28T05:46:23.226Z,9.07
2019-04-28T05:48:59.982Z,8.70
2019-04-28T05:51:32.996Z,8.77
2019-04-28T05:54:09.742Z,8.93
2019-04-28T05:56:49.608Z,9.40
2019-04-28T05:59:22.283Z,9.33
2019-04-28T06:01:57.630Z,10.37
2019-04-28T06:04:30.456Z,11.03
2019-04-28T06:07:03.291Z,10.33
2019-04-28T06:09:35.771Z,10.10
2019-04-28T06:12:10.194Z,10.83
2019-04-28T06:14:40.867Z,10.83
2019-04-28T06:17:11.770Z,11.50
2019-04-28T06:19:42.348Z,10.77
2019-04-28T06:22:13.119Z,10.47
2019-04-28T06:24:44.069Z,11.40
2019-04-28T06:27:14.888Z,10.70
2019-04-28T06:29:45.624Z,11.40
2019-04-28T06:32:16.461Z,11.80
2019-04-28T06:34:47.436Z,11.30
2019-04-28T06:37:18.226Z,11.97
2019-04-28T06:39:48.749Z,12.70
2019-04-28T06:42:19.398Z,14.27
2019-04-28T06:44:50.240Z,12.90
2019-04-28T06:47:21.080Z,12.73
2019-04-28T06:49:52.014Z,12.37
2019-04-28T06:52:22.746Z,11.50
2019-04-28T06:54:53.478Z,12.47
2019-04-28T06:57:29.876Z,11.87
2019-04-28T06:59:57.305Z,12.57
2019-04-28T07:02:28.052Z,12.10
2019-04-28T07:05:01.955Z,11.17
2019-04-28T07:07:30.972Z,11.77
2019-04-28T07:10:01.810Z,10.90
2019-04-28T07:12:32.611Z,10.47
2019-04-28T07:15:03.855Z,11.33
2019-04-28T07:17:34.583Z,11.03
2019-04-28T07:20:11.088Z,10.67
2019-04-28T07:22:43.014Z,10.10
2019-04-28T07:25:13.993Z,10.47
2019-04-28T07:27:44.827Z,10.00
2019-04-28T07:30:17.507Z,9.10
2019-04-28T07:32:48.441Z,8.93
2019-04-28T07:35:19.276Z,9.57
2019-04-28T07:37:49.994Z,9.70
2019-04-28T07:40:20.821Z,8.37
2019-04-28T07:42:53.234Z,8.47
2019-04-28T07:45:24.044Z,8.90
2019-04-28T07:47:54.956Z,8.13
2019-04-28T07:50:25.723Z,8.57
2019-04-28T07:53:01.308Z,8.10
2019-04-28T07:55:32.108Z,7.40
2019-04-28T07:58:02.950Z,6.80
2019-04-28T08:00:33.778Z,7.33
2019-04-28T08:03:04.604Z,7.00
2019-04-28T08:05:35.354Z,7.57
2019-04-28T08:08:06.196Z,7.13
2019-04-28T08:10:37.020Z,7.50
2019-04-28T08:13:07.773Z,6.87
2019-04-28T08:15:38.588Z,7.33
2019-04-28T08:18:09.383Z,7.20
2019-04-28T08:20:40.176Z,6.67
2019-04-28T08:23:10.996Z,6.50
2019-04-28T08:25:41.829Z,5.80
2019-04-28T08:28:12.665Z,5.93
2019-04-28T08:30:43.390Z,5.83
2019-04-28T08:33:15.436Z,5.53
2019-04-28T08:35:46.192Z,6.70
2019-04-28T08:38:16.944Z,6.27
2019-04-28T08:40:47.322Z,6.77
2019-04-28T08:43:18.324Z,6.53
2019-04-28T08:45:49.203Z,6.67
2019-04-28T08:48:21.528Z,6.23
2019-04-28T08:50:52.256Z,6.47
2019-04-28T08:53:23.036Z,6.37
2019-04-28T08:55:53.935Z,6.67
2019-04-28T08:58:24.665Z,6.47
2019-04-28T09:00:55.718Z,6.23
2019-04-28T09:03:26.331Z,5.63
2019-04-28T09:05:57.084Z,5.73
2019-04-28T09:08:27.914Z,5.47
2019-04-28T09:10:58.847Z,5.63
2019-04-28T09:13:29.679Z,5.30
2019-04-28T09:16:00.523Z,5.07
2019-04-28T09:18:31.368Z,5.30
2019-04-28T09:21:02.254Z,4.87
2019-04-28T09:23:33.016Z,4.73
2019-04-28T09:26:03.800Z,4.00
2019-04-28T09:28:34.597Z,4.07
2019-04-28T09:31:05.340Z,4.10
2019-04-28T09:33:36.059Z,4.40
2019-04-28T09:36:06.789Z,3.63
2019-04-28T09:38:37.527Z,4.00
2019-04-28T09:41:08.296Z,3.87
2019-04-28T09:43:57.273Z,4.40
2019-04-28T09:46:29.691Z,4.00
2019-04-28T09:49:00.438Z,4.20
2019-04-28T09:51:30.859Z,4.10
2019-04-28T09:54:01.333Z,4.60
2019-04-28T09:56:31.825Z,4.57
2019-04-28T09:59:02.566Z,4.07
2019-04-28T10:01:33.422Z,4.43
2019-04-28T10:04:04.138Z,4.27
2019-04-28T10:06:35.010Z,4.30
2019-04-28T10:09:07.752Z,4.40
2019-04-28T10:11:38.497Z,7.10
2019-04-28T10:14:09.217Z,4.30
2019-04-28T10:16:39.958Z,3.97
2019-04-28T10:19:12.829Z,3.80
2019-04-28T10:21:43.210Z,5.10
2019-04-28T10:24:14.011Z,4.03
2019-04-28T10:26:44.832Z,3.40
2019-04-28T10:29:15.578Z,3.70
2019-04-28T10:31:46.302Z,3.97
2019-04-28T10:34:17.023Z,4.50
2019-04-28T10:36:47.771Z,3.90
2019-04-28T10:39:20.139Z,3.60
2019-04-28T10:41:50.796Z,3.80
2019-04-28T10:44:22.265Z,3.70
2019-04-28T10:46:53.138Z,4.83
2019-04-28T10:49:24.015Z,4.47
2019-04-28T10:51:59.559Z,3.80
2019-04-28T10:54:27.224Z,3.53
2019-04-28T10:56:58.059Z,4.00
2019-04-28T10:59:28.875Z,3.77
2019-04-28T11:01:59.627Z,4.30
2019-04-28T11:04:41.017Z,3.70
2019-04-28T11:07:13.485Z,3.93
2019-04-28T11:09:46.463Z,4.03
2019-04-28T11:12:24.789Z,4.10
2019-04-28T11:14:55.703Z,3.10
2019-04-28T11:17:27.321Z,2.90
2019-04-28T11:19:58.239Z,3.93
2019-04-28T11:22:29.049Z,3.00
2019-04-28T11:24:59.970Z,3.10
2019-04-28T11:27:30.928Z,2.97
2019-04-28T11:30:01.659Z,3.40
2019-04-28T11:32:32.507Z,3.30
2019-04-28T11:35:21.477Z,3.20
2019-04-28T11:37:45.023Z,2.97
2019-04-28T11:40:15.913Z,3.03
2019-04-28T11:42:46.377Z,3.37
2019-04-28T11:45:17.448Z,3.10
2019-04-28T11:47:48.189Z,3.00
2019-04-28T11:50:19.001Z,2.83
2019-04-28T11:52:49.570Z,3.00
2019-04-28T11:55:20.875Z,2.53
2019-04-28T11:57:51.640Z,2.53
2019-04-28T12:00:24.427Z,2.43
2019-04-28T12:02:55.359Z,2.20
2019-04-28T12:05:34.426Z,2.50
2019-04-28T12:08:00.293Z,2.50
2019-04-28T12:10:38.387Z,2.47
2019-04-28T12:13:10.857Z,2.37
2019-04-28T12:15:43.551Z,2.20
2019-04-28T12:18:18.787Z,2.10
2019-04-28T12:20:49.627Z,2.20
2019-04-28T12:23:20.457Z,2.30
2019-04-28T12:25:51.193Z,2.57
2019-04-28T12:28:21.922Z,2.67
2019-04-28T12:30:52.780Z,3.10
2019-04-28T12:33:23.598Z,3.00
2019-04-28T12:35:54.166Z,3.13
2019-04-28T12:38:25.071Z,2.70
2019-04-28T12:40:55.906Z,2.80
2019-04-28T12:43:26.745Z,2.87
2019-04-28T12:45:57.587Z,2.70
2019-04-28T12:48:28.319Z,2.83
2019-04-28T12:50:59.295Z,3.20
2019-04-28T12:53:30.078Z,3.20
2019-04-28T12:56:00.851Z,2.90
2019-04-28T12:58:33.507Z,5.10
2019-04-28T13:01:05.969Z,4.10
2019-04-28T13:03:41.215Z,3.80
2019-04-28T13:06:16.176Z,3.70
2019-04-28T13:08:46.975Z,3.50
2019-04-28T13:11:17.710Z,3.10
2019-04-28T13:13:48.446Z,3.43
2019-04-28T13:16:19.216Z,2.80
2019-04-28T13:18:49.711Z,2.70
2019-04-28T13:21:20.477Z,2.10
2019-04-28T13:23:51.212Z,2.50
2019-04-28T13:26:22.048Z,2.20
2019-04-28T13:28:52.881Z,2.20
2019-04-28T13:31:23.733Z,2.87
2019-04-28T13:33:56.627Z,2.40
2019-04-28T13:36:27.343Z,2.67
2019-04-28T13:38:59.804Z,2.20
2019-04-28T13:41:30.647Z,2.07
2019-04-28T13:44:03.049Z,2.10
2019-04-28T13:46:33.920Z,2.00
2019-04-28T13:49:06.531Z,2.13
2019-04-28T13:51:36.913Z,2.13
2019-04-28T13:54:09.451Z,1.70
2019-04-28T13:56:41.906Z,2.10
2019-04-28T13:59:14.237Z,2.30
2019-04-28T14:01:49.344Z,1.80
2019-04-28T14:04:24.877Z,2.03
2019-04-28T14:06:59.057Z,1.80
2019-04-28T14:09:29.905Z,2.00
2019-04-28T14:12:00.665Z,2.17
2019-04-28T14:14:31.188Z,1.90
2019-04-28T14:17:02.076Z,2.17
2019-04-28T14:19:32.650Z,2.67
2019-04-28T14:22:04.317Z,2.03
2019-04-28T14:24:35.382Z,2.70
2019-04-28T14:27:05.788Z,2.77
2019-04-28T14:29:36.725Z,2.50
2019-04-28T14:32:07.527Z,2.10
2019-04-28T14:34:38.391Z,2.10
2019-04-28T14:37:09.214Z,2.10
2019-04-28T14:39:39.955Z,2.10
2019-04-28T14:42:10.794Z,2.00
2019-04-28T14:44:41.704Z,1.90
2019-04-28T14:47:12.468Z,1.90
2019-04-28T14:49:43.368Z,2.17
2019-04-28T14:52:14.140Z,1.97
2019-04-28T14:54:45.384Z,2.20
2019-04-28T14:57:16.222Z,1.80
2019-04-28T14:59:47.066Z,2.10
2019-04-28T15:02:25.431Z,2.60
2019-04-28T15:05:00.510Z,2.23
2019-04-28T15:07:40.264Z,2.03
2019-04-28T15:10:31.699Z,3.57
2019-04-28T15:13:03.545Z,1.53
2019-04-28T15:15:34.441Z,1.90
2019-04-28T15:18:06.925Z,1.83
2019-04-28T15:20:37.759Z,1.83
2019-04-28T15:23:08.523Z,1.63
2019-04-28T15:25:39.859Z,1.93
2019-04-28T15:28:10.724Z,1.43
2019-04-28T15:30:41.530Z,1.90
2019-04-28T15:33:20.345Z,1.70
2019-04-28T15:35:51.200Z,1.57
2019-04-28T15:38:22.414Z,2.60
2019-04-28T15:40:53.352Z,2.43
2019-04-28T15:43:23.882Z,2.50
2019-04-28T15:45:54.655Z,1.80
2019-04-28T15:48:25.629Z,3.27
2019-04-28T15:50:56.423Z,1.40
2019-04-28T15:53:27.580Z,1.67
2019-04-28T15:56:16.324Z,2.33
2019-04-28T15:58:47.322Z,5.90
2019-04-28T16:01:18.096Z,1.60
2019-04-28T16:03:48.840Z,1.80
2019-04-28T16:06:20.841Z,2.47
2019-04-28T16:08:51.929Z,4.43
2019-04-28T16:11:22.794Z,1.77
2019-04-28T16:13:53.624Z,4.07
2019-04-28T16:16:24.477Z,2.47
2019-04-28T16:18:55.309Z,5.60
2019-04-28T16:21:26.155Z,2.10
2019-04-28T16:23:58.495Z,1.67
2019-04-28T16:26:29.345Z,2.57
2019-04-28T16:29:00.158Z,2.40
2019-04-28T16:31:30.585Z,1.80
2019-04-28T16:34:01.544Z,2.00
2019-04-28T16:36:32.273Z,1.60
2019-04-28T16:39:03.011Z,1.60
2019-04-28T16:41:35.797Z,1.83
2019-04-28T16:44:10.117Z,1.80
2019-04-28T16:46:40.942Z,5.10
2019-04-28T16:49:11.547Z,2.60
2019-04-28T16:51:42.275Z,3.33
2019-04-28T16:54:12.741Z,1.80
2019-04-28T16:56:47.857Z,1.70
2019-04-28T16:59:29.623Z,2.00
2019-04-28T17:02:04.715Z,2.13
2019-04-28T17:04:35.558Z,1.70
2019-04-28T17:07:07.805Z,1.50
2019-04-28T17:09:38.704Z,3.10
2019-04-28T17:12:09.796Z,2.80
2019-04-28T17:14:44.720Z,3.30
2019-04-28T17:17:14.850Z,2.33
2019-04-28T17:19:45.732Z,2.10
2019-04-28T17:22:16.521Z,2.10
2019-04-28T17:24:47.278Z,1.93
2019-04-28T17:27:18.090Z,2.50
2019-04-28T17:29:51.037Z,2.07
2019-04-28T17:32:20.999Z,2.13
2019-04-28T17:34:51.563Z,2.00
2019-04-28T17:37:22.792Z,2.00
2019-04-28T17:39:53.612Z,2.00
2019-04-28T17:42:25.391Z,1.77
2019-04-28T17:44:56.905Z,2.00
2019-04-28T17:47:27.527Z,2.60
2019-04-28T17:49:58.221Z,2.00
2019-04-28T17:52:29.033Z,2.20
2019-04-28T17:54:59.557Z,2.00
2019-04-28T17:57:32.859Z,2.20
2019-04-28T18:00:16.175Z,2.10
2019-04-28T18:03:00.759Z,2.40
2019-04-28T18:05:45.247Z,2.30
2019-04-28T18:08:21.230Z,2.30
2019-04-28T18:10:48.602Z,2.30
2019-04-28T18:13:19.756Z,2.13
2019-04-28T18:16:07.917Z,2.60
2019-04-28T18:18:42.915Z,2.53
2019-04-28T18:21:13.889Z,2.10
2019-04-28T18:23:44.313Z,2.30
2019-04-28T18:26:18.041Z,2.30
2019-04-28T18:28:48.518Z,2.37
2019-04-28T18:31:29.723Z,2.20
2019-04-28T18:34:18.743Z,1.90
2019-04-28T18:36:55.377Z,2.20
2019-04-28T18:39:44.112Z,2.40
2019-04-28T18:42:32.929Z,1.90
2019-04-28T18:45:04.597Z,2.10
2019-04-28T18:47:35.035Z,2.50
2019-04-28T18:50:08.292Z,1.80
2019-04-28T18:52:39.094Z,1.80
2019-04-28T18:55:10.254Z,2.30
2019-04-28T18:57:46.474Z,2.17
2019-04-28T19:00:24.844Z,2.23
2019-04-28T19:02:56.096Z,2.10
2019-04-28T19:05:28.198Z,2.03
2019-04-28T19:08:03.495Z,2.00
2019-04-28T19:10:40.359Z,2.50
2019-04-28T19:13:24.985Z,2.80
2019-04-28T19:16:13.673Z,2.20
2019-04-28T19:18:46.332Z,2.90
2019-04-28T19:21:16.795Z,2.50
2019-04-28T19:23:47.524Z,2.43
2019-04-28T19:26:18.198Z,2.40
2019-04-28T19:28:49.064Z,2.63
2019-04-28T19:31:19.914Z,2.57
2019-04-28T19:33:50.840Z,3.00
2019-04-28T19:36:21.873Z,2.80
2019-04-28T19:39:02.535Z,2.90
2019-04-28T19:41:25.012Z,2.73
2019-04-28T19:43:55.659Z,3.33
2019-04-28T19:46:30.911Z,3.23
2019-04-28T19:49:01.773Z,2.90
2019-04-28T19:51:32.515Z,3.23
2019-04-28T19:54:03.405Z,3.20
2019-04-28T19:56:35.954Z,2.77
2019-04-28T19:59:24.673Z,3.30
2019-04-28T20:01:55.442Z,3.20
2019-04-28T20:04:26.171Z,3.33
2019-04-28T20:06:56.907Z,3.43
2019-04-28T20:09:27.678Z,3.43
2019-04-28T20:11:58.579Z,3.13
2019-04-28T20:14:29.449Z,3.40
2019-04-28T20:17:00.355Z,3.40
2019-04-28T20:19:31.395Z,3.00
2019-04-28T20:22:02.231Z,3.83
2019-04-28T20:24:32.747Z,3.53
2019-04-28T20:27:03.599Z,3.00
2019-04-28T20:29:34.436Z,3.00
2019-04-28T20:32:05.368Z,3.40
2019-04-28T20:34:36.230Z,2.87
2019-04-28T20:37:21.062Z,2.87
2019-04-28T20:39:53.887Z,3.07
2019-04-28T20:42:42.956Z,2.80
2019-04-28T20:45:15.466Z,3.03
2019-04-28T20:47:45.963Z,2.57
2019-04-28T20:50:16.683Z,2.83
2019-04-28T20:52:47.505Z,3.23
2019-04-28T20:55:18.274Z,3.70
2019-04-28T20:57:49.053Z,3.23
2019-04-28T21:00:19.899Z,3.33
2019-04-28T21:02:50.638Z,3.70
2019-04-28T21:05:21.497Z,3.00
2019-04-28T21:07:52.298Z,3.30
2019-04-28T21:10:22.858Z,3.40
2019-04-28T21:12:53.327Z,3.97
2019-04-28T21:15:24.086Z,3.47
2019-04-28T21:17:55.003Z,3.40
2019-04-28T21:20:25.766Z,3.87
2019-04-28T21:22:56.500Z,4.50
2019-04-28T21:25:27.228Z,4.00
2019-04-28T21:27:57.998Z,3.57
2019-04-28T21:30:28.818Z,3.37
2019-04-28T21:32:59.637Z,3.60
2019-04-28T21:35:30.378Z,3.70
2019-04-28T21:38:00.762Z,3.60
2019-04-28T21:40:31.526Z,3.80
2019-04-28T21:43:06.932Z,3.93
2019-04-28T21:45:55.730Z,3.73
2019-04-28T21:48:39.985Z,4.00
2019-04-28T21:51:11.999Z,4.30
2019-04-28T21:53:43.222Z,3.90
2019-04-28T21:56:14.085Z,4.07
2019-04-28T21:58:44.780Z,4.13
2019-04-28T22:01:18.494Z,4.27
2019-04-28T22:03:49.309Z,3.93
2019-04-28T22:06:19.694Z,4.00
2019-04-28T22:08:50.836Z,3.87
2019-04-28T22:11:21.617Z,3.97
2019-04-28T22:13:52.448Z,3.77
2019-04-28T22:16:23.290Z,3.83
2019-04-28T22:18:53.762Z,4.57
2019-04-28T22:21:24.592Z,4.10
2019-04-28T22:23:57.039Z,3.90
2019-04-28T22:26:47.524Z,4.10
2019-04-28T22:29:18.250Z,4.53
2019-04-28T22:31:48.963Z,4.40
2019-04-28T22:34:19.781Z,3.83
2019-04-28T22:36:50.462Z,3.90
2019-04-28T22:39:21.400Z,4.30
2019-04-28T22:41:52.241Z,4.40
2019-04-28T22:44:22.697Z,4.20
2019-04-28T22:46:53.201Z,4.00
2019-04-28T22:49:23.928Z,3.83
2019-04-28T22:51:54.800Z,3.70
2019-04-28T22:54:30.889Z,3.83
2019-04-28T22:57:03.324Z,3.77
2019-04-28T22:59:38.666Z,4.00
2019-04-28T23:02:16.893Z,3.53
2019-04-28T23:04:52.154Z,3.90
2019-04-28T23:07:22.818Z,3.70
2019-04-28T23:09:53.554Z,3.63
2019-04-28T23:12:24.420Z,3.87
2019-04-28T23:14:55.190Z,4.33
2019-04-28T23:17:26.276Z,3.77
2019-04-28T23:19:56.997Z,3.73
2019-04-28T23:22:32.070Z,4.13
2019-04-28T23:25:02.557Z,3.90
2019-04-28T23:27:33.431Z,4.30
2019-04-28T23:30:06.319Z,3.90
2019-04-28T23:32:37.157Z,4.30
2019-04-28T23:35:08.814Z,4.30
2019-04-28T23:37:39.270Z,4.17
2019-04-28T23:40:10.076Z,4.40
2019-04-28T23:42:42.436Z,3.83
2019-04-28T23:45:13.074Z,4.60
2019-04-28T23:47:43.913Z,4.40
2019-04-28T23:50:16.586Z,4.50
2019-04-28T23:52:49.040Z,4.60
2019-04-28T23:55:19.932Z,4.10
2019-04-28T23:57:50.606Z,4.00
